sensor_id;sensor_type;location;lat;lon;timestamp;pressure;altitude;pressure_sealevel;temperature;humidity
53011;BME280;42803;55.762;38.084;2024-02-26T00:01:41;100738.63;;;-3.68;90.66
53011;BME280;42803;55.762;38.084;2024-02-26T00:04:11;100732.16;;;-3.77;89.93
53011;BME280;42803;55.762;38.084;2024-02-26T00:06:42;100731.66;;;-3.80;90.97
53011;BME280;42803;55.762;38.084;2024-02-26T00:09:12;100730.97;;;-3.79;90.84
53011;BME280;42803;55.762;38.084;2024-02-26T00:11:41;100732.81;;;-3.83;90.01
53011;BME280;42803;55.762;38.084;2024-02-26T00:14:10;100727.50;;;-3.85;90.18
53011;BME280;42803;55.762;38.084;2024-02-26T00:16:40;100723.06;;;-3.86;89.78
53011;BME280;42803;55.762;38.084;2024-02-26T00:19:09;100719.13;;;-3.89;89.82
53011;BME280;42803;55.762;38.084;2024-02-26T00:21:40;100733.75;;;-3.83;90.65
53011;BME280;42803;55.762;38.084;2024-02-26T00:24:11;100722.84;;;-3.71;92.31
53011;BME280;42803;55.762;38.084;2024-02-26T00:26:40;100719.16;;;-3.73;91.30
53011;BME280;42803;55.762;38.084;2024-02-26T00:29:09;100714.75;;;-3.85;89.73
53011;BME280;42803;55.762;38.084;2024-02-26T00:31:38;100714.50;;;-3.92;89.01
53011;BME280;42803;55.762;38.084;2024-02-26T00:34:08;100716.59;;;-3.95;90.54
53011;BME280;42803;55.762;38.084;2024-02-26T00:36:37;100715.88;;;-3.94;89.66
53011;BME280;42803;55.762;38.084;2024-02-26T00:39:06;100727.25;;;-4.03;89.71
53011;BME280;42803;55.762;38.084;2024-02-26T00:41:40;100719.59;;;-3.98;91.31
53011;BME280;42803;55.762;38.084;2024-02-26T00:44:09;100722.41;;;-3.96;91.72
53011;BME280;42803;55.762;38.084;2024-02-26T00:46:39;100717.97;;;-3.97;90.56
53011;BME280;42803;55.762;38.084;2024-02-26T00:49:08;100715.44;;;-4.03;89.49
53011;BME280;42803;55.762;38.084;2024-02-26T00:51:38;100718.91;;;-4.02;89.84
53011;BME280;42803;55.762;38.084;2024-02-26T00:54:07;100717.53;;;-4.00;90.16
53011;BME280;42803;55.762;38.084;2024-02-26T00:56:36;100713.56;;;-3.98;90.39
53011;BME280;42803;55.762;38.084;2024-02-26T00:59:06;100714.50;;;-3.98;91.37
53011;BME280;42803;55.762;38.084;2024-02-26T01:01:35;100717.75;;;-3.99;91.13
53011;BME280;42803;55.762;38.084;2024-02-26T01:04:04;100705.22;;;-4.03;89.46
53011;BME280;42803;55.762;38.084;2024-02-26T01:06:34;100708.00;;;-4.07;90.09
53011;BME280;42803;55.762;38.084;2024-02-26T01:09:03;100704.53;;;-4.02;90.95
53011;BME280;42803;55.762;38.084;2024-02-26T01:11:32;100703.59;;;-4.02;90.95
53011;BME280;42803;55.762;38.084;2024-02-26T01:14:02;100709.16;;;-4.05;90.84
53011;BME280;42803;55.762;38.084;2024-02-26T01:16:32;100712.41;;;-4.11;90.13
53011;BME280;42803;55.762;38.084;2024-02-26T01:19:02;100709.63;;;-4.19;89.23
53011;BME280;42803;55.762;38.084;2024-02-26T01:21:31;100714.94;;;-4.17;90.08
53011;BME280;42803;55.762;38.084;2024-02-26T01:24:00;100714.03;;;-4.23;89.47
53011;BME280;42803;55.762;38.084;2024-02-26T01:26:29;100719.09;;;-4.29;88.67
53011;BME280;42803;55.762;38.084;2024-02-26T01:28:58;100712.38;;;-4.34;89.11
53011;BME280;42803;55.762;38.084;2024-02-26T01:31:28;100711.66;;;-4.33;89.92
53011;BME280;42803;55.762;38.084;2024-02-26T01:33:58;100707.28;;;-4.28;90.31
53011;BME280;42803;55.762;38.084;2024-02-26T01:36:28;100711.22;;;-4.25;90.71
53011;BME280;42803;55.762;38.084;2024-02-26T01:38:57;100711.22;;;-4.25;90.13
53011;BME280;42803;55.762;38.084;2024-02-26T01:41:26;100717.97;;;-4.20;90.33
53011;BME280;42803;55.762;38.084;2024-02-26T01:43:55;100713.31;;;-4.05;90.84
53011;BME280;42803;55.762;38.084;2024-02-26T01:46:24;100710.53;;;-4.12;89.67
53011;BME280;42803;55.762;38.084;2024-02-26T01:48:54;100707.06;;;-4.19;89.41
53011;BME280;42803;55.762;38.084;2024-02-26T01:51:24;100700.13;;;-4.20;89.32
53011;BME280;42803;55.762;38.084;2024-02-26T01:53:54;100706.59;;;-4.22;90.22
53011;BME280;42803;55.762;38.084;2024-02-26T01:56:23;100704.75;;;-4.23;89.66
53011;BME280;42803;55.762;38.084;2024-02-26T01:58:58;100706.34;;;-4.29;89.51
53011;BME280;42803;55.762;38.084;2024-02-26T02:01:29;100704.28;;;-4.26;89.59
53011;BME280;42803;55.762;38.084;2024-02-26T02:04:00;100693.38;;;-4.13;90.55
53011;BME280;42803;55.762;38.084;2024-02-26T02:06:31;100691.31;;;-4.10;89.67
53011;BME280;42803;55.762;38.084;2024-02-26T02:09:01;100690.38;;;-4.17;89.57
53011;BME280;42803;55.762;38.084;2024-02-26T02:11:34;100702.66;;;-4.25;88.42
53011;BME280;42803;55.762;38.084;2024-02-26T02:14:04;100698.22;;;-4.32;88.27
53011;BME280;42803;55.762;38.084;2024-02-26T02:16:33;100695.91;;;-4.36;88.46
53011;BME280;42803;55.762;38.084;2024-02-26T02:19:03;100701.00;;;-4.36;88.94
53011;BME280;42803;55.762;38.084;2024-02-26T02:21:33;100697.78;;;-4.35;89.14
53011;BME280;42803;55.762;38.084;2024-02-26T02:24:03;100690.13;;;-4.35;88.52
53011;BME280;42803;55.762;38.084;2024-02-26T02:26:32;100692.22;;;-4.38;88.66
53011;BME280;42803;55.762;38.084;2024-02-26T02:29:02;100696.13;;;-4.40;88.22
53011;BME280;42803;55.762;38.084;2024-02-26T02:31:32;100697.31;;;-4.38;89.22
53011;BME280;42803;55.762;38.084;2024-02-26T02:34:01;100691.28;;;-4.38;88.64
53011;BME280;42803;55.762;38.084;2024-02-26T02:36:31;100700.56;;;-4.33;89.74
53011;BME280;42803;55.762;38.084;2024-02-26T02:39:01;100691.72;;;-4.35;89.11
53011;BME280;42803;55.762;38.084;2024-02-26T02:41:31;100696.34;;;-4.44;88.12
53011;BME280;42803;55.762;38.084;2024-02-26T02:44:01;100687.53;;;-4.52;87.96
53011;BME280;42803;55.762;38.084;2024-02-26T02:46:30;100686.38;;;-4.54;88.83
53011;BME280;42803;55.762;38.084;2024-02-26T02:49:01;100686.41;;;-4.43;89.32
53011;BME280;42803;55.762;38.084;2024-02-26T02:51:30;100687.09;;;-4.44;88.59
53011;BME280;42803;55.762;38.084;2024-02-26T02:54:00;100695.41;;;-4.50;88.25
53011;BME280;42803;55.762;38.084;2024-02-26T02:56:30;100694.00;;;-4.59;88.91
53011;BME280;42803;55.762;38.084;2024-02-26T02:58:59;100689.13;;;-4.63;88.84
53011;BME280;42803;55.762;38.084;2024-02-26T03:01:28;100690.31;;;-4.61;89.33
53011;BME280;42803;55.762;38.084;2024-02-26T03:03:58;100686.09;;;-4.67;89.41
53011;BME280;42803;55.762;38.084;2024-02-26T03:06:27;100687.94;;;-4.71;89.81
53011;BME280;42803;55.762;38.084;2024-02-26T03:08:56;100695.09;;;-4.74;89.57
53011;BME280;42803;55.762;38.084;2024-02-26T03:11:27;100688.81;;;-4.82;89.11
53011;BME280;42803;55.762;38.084;2024-02-26T03:13:56;100686.28;;;-4.87;89.54
53011;BME280;42803;55.762;38.084;2024-02-26T03:16:25;100690.66;;;-4.92;90.07
53011;BME280;42803;55.762;38.084;2024-02-26T03:18:55;100685.09;;;-4.95;90.44
53011;BME280;42803;55.762;38.084;2024-02-26T03:21:25;100683.69;;;-4.99;89.93
53011;BME280;42803;55.762;38.084;2024-02-26T03:23:55;100696.16;;;-5.00;89.73
53011;BME280;42803;55.762;38.084;2024-02-26T03:26:26;100688.06;;;-5.03;90.75
53011;BME280;42803;55.762;38.084;2024-02-26T03:28:55;100690.56;;;-5.09;90.90
53011;BME280;42803;55.762;38.084;2024-02-26T03:31:25;100686.41;;;-5.08;91.67
53011;BME280;42803;55.762;38.084;2024-02-26T03:33:54;100695.44;;;-5.10;91.36
53011;BME280;42803;55.762;38.084;2024-02-26T03:36:23;100680.38;;;-5.15;90.85
53011;BME280;42803;55.762;38.084;2024-02-26T03:38:52;100684.28;;;-5.17;91.29
53011;BME280;42803;55.762;38.084;2024-02-26T03:41:21;100687.53;;;-5.18;91.43
53011;BME280;42803;55.762;38.084;2024-02-26T03:43:52;100691.44;;;-5.20;90.84
53011;BME280;42803;55.762;38.084;2024-02-26T03:46:21;100689.81;;;-5.25;90.17
53011;BME280;42803;55.762;38.084;2024-02-26T03:48:50;100686.06;;;-5.27;90.32
53011;BME280;42803;55.762;38.084;2024-02-26T03:51:20;100683.53;;;-5.27;90.60
53011;BME280;42803;55.762;38.084;2024-02-26T03:53:49;100688.63;;;-5.27;91.24
53011;BME280;42803;55.762;38.084;2024-02-26T03:56:18;100689.31;;;-5.28;90.90
53011;BME280;42803;55.762;38.084;2024-02-26T03:58:48;100686.78;;;-5.28;91.26
53011;BME280;42803;55.762;38.084;2024-02-26T04:01:18;100685.63;;;-5.30;92.70
53011;BME280;42803;55.762;38.084;2024-02-26T04:03:48;100684.88;;;-5.34;92.07
53011;BME280;42803;55.762;38.084;2024-02-26T04:06:17;100691.59;;;-5.35;91.75
53011;BME280;42803;55.762;38.084;2024-02-26T04:08:48;100697.38;;;-5.36;92.21
53011;BME280;42803;55.762;38.084;2024-02-26T04:11:18;100696.44;;;-5.36;92.04
53011;BME280;42803;55.762;38.084;2024-02-26T04:13:48;100688.56;;;-5.38;91.54
53011;BME280;42803;55.762;38.084;2024-02-26T04:16:21;100688.56;;;-5.38;91.93
53011;BME280;42803;55.762;38.084;2024-02-26T04:18:50;100689.03;;;-5.41;91.48
53011;BME280;42803;55.762;38.084;2024-02-26T04:21:21;100688.09;;;-5.41;91.68
53011;BME280;42803;55.762;38.084;2024-02-26T04:23:50;100688.97;;;-5.46;91.46
53011;BME280;42803;55.762;38.084;2024-02-26T04:26:22;100697.28;;;-5.47;91.85
53011;BME280;42803;55.762;38.084;2024-02-26T04:28:51;100689.66;;;-5.47;92.18
53011;BME280;42803;55.762;38.084;2024-02-26T04:31:22;100695.44;;;-5.48;92.75
53011;BME280;42803;55.762;38.084;2024-02-26T04:33:51;100696.38;;;-5.48;92.39
53011;BME280;42803;55.762;38.084;2024-02-26T04:36:20;100697.28;;;-5.47;93.09
53011;BME280;42803;55.762;38.084;2024-02-26T04:38:50;100692.44;;;-5.46;93.15
53011;BME280;42803;55.762;38.084;2024-02-26T04:41:22;100695.25;;;-5.44;92.73
53011;BME280;42803;55.762;38.084;2024-02-26T04:43:51;100696.38;;;-5.42;92.52
53011;BME280;42803;55.762;38.084;2024-02-26T04:46:22;100701.03;;;-5.40;92.26
53011;BME280;42803;55.762;38.084;2024-02-26T04:48:51;100698.50;;;-5.40;92.07
53011;BME280;42803;55.762;38.084;2024-02-26T04:51:24;100696.66;;;-5.35;93.00
53011;BME280;42803;55.762;38.084;2024-02-26T04:53:54;100711.28;;;-5.34;92.90
53011;BME280;42803;55.762;38.084;2024-02-26T04:56:23;100701.09;;;-5.34;92.46
53011;BME280;42803;55.762;38.084;2024-02-26T04:58:52;100702.47;;;-5.30;92.32
53011;BME280;42803;55.762;38.084;2024-02-26T05:01:23;100696.94;;;-5.28;92.92
53011;BME280;42803;55.762;38.084;2024-02-26T05:03:52;100702.03;;;-5.28;92.12
53011;BME280;42803;55.762;38.084;2024-02-26T05:06:22;100697.91;;;-5.22;92.31
53011;BME280;42803;55.762;38.084;2024-02-26T05:08:51;100691.91;;;-5.17;92.22
53011;BME280;42803;55.762;38.084;2024-02-26T05:11:20;100688.22;;;-5.13;92.12
53011;BME280;42803;55.762;38.084;2024-02-26T05:13:49;100696.59;;;-5.08;93.04
53011;BME280;42803;55.762;38.084;2024-02-26T05:16:19;100690.13;;;-5.06;93.07
53011;BME280;42803;55.762;38.084;2024-02-26T05:18:50;100689.69;;;-4.98;92.83
53011;BME280;42803;55.762;38.084;2024-02-26T05:21:19;100692.47;;;-4.97;92.48
53011;BME280;42803;55.762;38.084;2024-02-26T05:23:48;100686.94;;;-4.94;91.79
53011;BME280;42803;55.762;38.084;2024-02-26T05:26:21;100689.53;;;-4.83;93.31
53011;BME280;42803;55.762;38.084;2024-02-26T05:28:50;100681.41;;;-4.86;91.86
53011;BME280;42803;55.762;38.084;2024-02-26T05:31:20;100683.25;;;-4.85;90.49
53011;BME280;42803;55.762;38.084;2024-02-26T05:33:51;100688.34;;;-4.85;90.00
53011;BME280;42803;55.762;38.084;2024-02-26T05:36:20;100700.41;;;-4.84;89.98
53011;BME280;42803;55.762;38.084;2024-02-26T05:38:50;100693.22;;;-4.81;90.56
53011;BME280;42803;55.762;38.084;2024-02-26T05:41:19;100687.03;;;-4.66;92.16
53011;BME280;42803;55.762;38.084;2024-02-26T05:43:51;100691.22;;;-4.61;90.75
53011;BME280;42803;55.762;38.084;2024-02-26T05:46:20;100689.13;;;-4.63;89.20
53011;BME280;42803;55.762;38.084;2024-02-26T05:48:52;100695.38;;;-4.67;88.37
53011;BME280;42803;55.762;38.084;2024-02-26T05:51:21;100691.66;;;-4.58;88.85
53011;BME280;42803;55.762;38.084;2024-02-26T05:53:50;100695.41;;;-4.56;89.14
53011;BME280;42803;55.762;38.084;2024-02-26T05:56:22;100692.41;;;-4.53;87.74
53011;BME280;42803;55.762;38.084;2024-02-26T05:58:52;100692.19;;;-4.49;88.25
53011;BME280;42803;55.762;38.084;2024-02-26T06:01:22;100692.22;;;-4.38;88.21
53011;BME280;42803;55.762;38.084;2024-02-26T06:03:53;100685.75;;;-4.19;88.58
53011;BME280;42803;55.762;38.084;2024-02-26T06:06:23;100679.72;;;-4.08;87.81
53011;BME280;42803;55.762;38.084;2024-02-26T06:08:52;100690.84;;;-3.91;86.86
53011;BME280;42803;55.762;38.084;2024-02-26T06:11:21;100685.53;;;-3.81;86.80
53011;BME280;42803;55.762;38.084;2024-02-26T06:13:50;100686.91;;;-3.78;86.58
53011;BME280;42803;55.762;38.084;2024-02-26T06:16:20;100685.31;;;-3.77;85.94
53011;BME280;42803;55.762;38.084;2024-02-26T06:18:49;100686.00;;;-3.73;85.51
53011;BME280;42803;55.762;38.084;2024-02-26T06:21:20;100687.59;;;-3.68;85.50
53011;BME280;42803;55.762;38.084;2024-02-26T06:23:49;100687.59;;;-3.56;85.32
53011;BME280;42803;55.762;38.084;2024-02-26T06:26:18;100695.44;;;-3.32;85.06
53011;BME280;42803;55.762;38.084;2024-02-26T06:28:47;100694.47;;;-3.22;84.03
53011;BME280;42803;55.762;38.084;2024-02-26T06:31:16;100702.63;;;-3.24;83.52
53011;BME280;42803;55.762;38.084;2024-02-26T06:33:46;100707.03;;;-3.23;82.66
53011;BME280;42803;55.762;38.084;2024-02-26T06:36:15;100697.72;;;-3.11;83.39
53011;BME280;42803;55.762;38.084;2024-02-26T06:38:46;100702.59;;;-3.19;82.96
53011;BME280;42803;55.762;38.084;2024-02-26T06:41:15;100696.81;;;-3.23;83.27
53011;BME280;42803;55.762;38.084;2024-02-26T06:43:44;100693.34;;;-3.24;83.33
53011;BME280;42803;55.762;38.084;2024-02-26T06:46:14;100688.91;;;-3.25;83.87
53011;BME280;42803;55.762;38.084;2024-02-26T06:48:43;100693.59;;;-3.28;83.44
53011;BME280;42803;55.762;38.084;2024-02-26T06:51:12;100692.66;;;-3.34;82.99
53011;BME280;42803;55.762;38.084;2024-02-26T06:53:42;100687.97;;;-3.25;84.40
53011;BME280;42803;55.762;38.084;2024-02-26T06:56:12;100682.88;;;-3.25;85.09
53011;BME280;42803;55.762;38.084;2024-02-26T06:58:41;100680.09;;;-3.32;83.94
53011;BME280;42803;55.762;38.084;2024-02-26T07:01:12;100684.97;;;-3.28;83.09
53011;BME280;42803;55.762;38.084;2024-02-26T07:03:41;100681.00;;;-3.15;83.87
53011;BME280;42803;55.762;38.084;2024-02-26T07:06:10;100692.56;;;-3.06;83.56
53011;BME280;42803;55.762;38.084;2024-02-26T07:08:41;100692.09;;;-2.98;83.14
53011;BME280;42803;55.762;38.084;2024-02-26T07:11:11;100690.91;;;-2.94;83.19
53011;BME280;42803;55.762;38.084;2024-02-26T07:13:41;100699.44;;;-2.77;82.30
53011;BME280;42803;55.762;38.084;2024-02-26T07:16:10;100703.63;;;-2.77;82.50
53011;BME280;42803;55.762;38.084;2024-02-26T07:18:39;100688.94;;;-2.67;83.04
53011;BME280;42803;55.762;38.084;2024-02-26T07:21:09;100684.97;;;-2.59;82.21
53011;BME280;42803;55.762;38.084;2024-02-26T07:23:38;100685.84;;;-2.53;81.86
53011;BME280;42803;55.762;38.084;2024-02-26T07:26:07;100681.56;;;-2.36;82.34
53011;BME280;42803;55.762;38.084;2024-02-26T07:28:40;100676.84;;;-2.27;81.85
53011;BME280;42803;55.762;38.084;2024-02-26T07:31:09;100681.03;;;-2.28;81.04
53011;BME280;42803;55.762;38.084;2024-02-26T07:33:39;100666.06;;;-2.13;80.73
53011;BME280;42803;55.762;38.084;2024-02-26T07:36:08;100680.44;;;-2.08;80.24
53011;BME280;42803;55.762;38.084;2024-02-26T07:38:37;100666.41;;;-1.99;80.11
53011;BME280;42803;55.762;38.084;2024-02-26T07:41:11;100665.31;;;-2.07;80.78
53011;BME280;42803;55.762;38.084;2024-02-26T07:43:42;100662.94;;;-2.00;81.29
53011;BME280;42803;55.762;38.084;2024-02-26T07:46:12;100663.56;;;-1.89;80.89
53011;BME280;42803;55.762;38.084;2024-02-26T07:48:42;100664.41;;;-1.83;80.04
53011;BME280;42803;55.762;38.084;2024-02-26T07:51:13;100657.72;;;-1.88;80.52
53011;BME280;42803;55.762;38.084;2024-02-26T07:53:43;100657.00;;;-1.87;80.78
53011;BME280;42803;55.762;38.084;2024-02-26T07:56:12;100654.09;;;-1.48;80.84
53011;BME280;42803;55.762;38.084;2024-02-26T07:58:43;100659.66;;;-1.27;79.47
53011;BME280;42803;55.762;38.084;2024-02-26T08:01:13;100663.94;;;-1.33;78.87
53011;BME280;42803;55.762;38.084;2024-02-26T08:03:43;100669.91;;;-1.27;78.29
53011;BME280;42803;55.762;38.084;2024-02-26T08:06:12;100660.09;;;-1.24;79.69
53011;BME280;42803;55.762;38.084;2024-02-26T08:08:42;100664.66;;;-1.15;78.33
53011;BME280;42803;55.762;38.084;2024-02-26T08:11:11;100660.97;;;-1.17;78.58
53011;BME280;42803;55.762;38.084;2024-02-26T08:13:44;100667.53;;;-1.01;79.05
53011;BME280;42803;55.762;38.084;2024-02-26T08:16:13;100664.69;;;-0.97;77.89
53011;BME280;42803;55.762;38.084;2024-02-26T08:18:42;100665.25;;;-1.05;76.80
53011;BME280;42803;55.762;38.084;2024-02-26T08:21:12;100669.66;;;-1.04;77.70
53011;BME280;42803;55.762;38.084;2024-02-26T08:23:42;100661.69;;;-0.82;78.24
53011;BME280;42803;55.762;38.084;2024-02-26T08:26:12;100671.19;;;-0.93;77.23
53011;BME280;42803;55.762;38.084;2024-02-26T08:28:45;100667.25;;;-0.97;76.66
53011;BME280;42803;55.762;38.084;2024-02-26T08:31:15;100670.19;;;-1.07;77.81
53011;BME280;42803;55.762;38.084;2024-02-26T08:33:44;100663.47;;;-1.12;79.55
53011;BME280;42803;55.762;38.084;2024-02-26T08:36:15;100657.09;;;-1.03;79.11
53011;BME280;42803;55.762;38.084;2024-02-26T08:38:44;100659.41;;;-1.04;77.55
53011;BME280;42803;55.762;38.084;2024-02-26T08:41:13;100659.84;;;-1.01;77.28
53011;BME280;42803;55.762;38.084;2024-02-26T08:43:42;100658.19;;;-1.19;77.60
53011;BME280;42803;55.762;38.084;2024-02-26T08:46:14;100652.75;;;-0.91;77.75
53011;BME280;42803;55.762;38.084;2024-02-26T08:48:44;100648.59;;;-0.78;77.20
53011;BME280;42803;55.762;38.084;2024-02-26T08:51:15;100650.59;;;-0.69;77.46
53011;BME280;42803;55.762;38.084;2024-02-26T08:53:44;100643.66;;;-0.58;76.86
53011;BME280;42803;55.762;38.084;2024-02-26T08:56:15;100648.44;;;-0.48;77.41
53011;BME280;42803;55.762;38.084;2024-02-26T08:58:46;100652.16;;;-0.64;76.69
53011;BME280;42803;55.762;38.084;2024-02-26T09:01:18;100641.31;;;-0.56;77.64
53011;BME280;42803;55.762;38.084;2024-02-26T09:03:48;100639.34;;;-0.64;77.01
53011;BME280;42803;55.762;38.084;2024-02-26T09:06:17;100645.47;;;-0.69;77.94
53011;BME280;42803;55.762;38.084;2024-02-26T09:08:47;100647.44;;;-0.61;78.90
53011;BME280;42803;55.762;38.084;2024-02-26T09:11:16;100648.44;;;-0.66;77.87
53011;BME280;42803;55.762;38.084;2024-02-26T09:13:46;100639.50;;;-0.57;76.70
53011;BME280;42803;55.762;38.084;2024-02-26T09:16:28;100641.53;;;-0.55;77.54
53011;BME280;42803;55.762;38.084;2024-02-26T09:18:58;100645.72;;;-0.55;76.71
53011;BME280;42803;55.762;38.084;2024-02-26T09:21:27;100639.72;;;-0.43;77.89
53011;BME280;42803;55.762;38.084;2024-02-26T09:23:57;100645.16;;;-0.47;76.25
53011;BME280;42803;55.762;38.084;2024-02-26T09:26:26;100644.72;;;-0.50;77.21
53011;BME280;42803;55.762;38.084;2024-02-26T09:28:55;100647.41;;;-0.43;77.30
53011;BME280;42803;55.762;38.084;2024-02-26T09:31:26;100624.63;;;-0.47;76.56
53011;BME280;42803;55.762;38.084;2024-02-26T09:33:55;100636.09;;;-0.51;78.26
53011;BME280;42803;55.762;38.084;2024-02-26T09:36:29;100634.88;;;-0.47;77.07
53011;BME280;42803;55.762;38.084;2024-02-26T09:38:59;100643.56;;;-0.34;79.64
53011;BME280;42803;55.762;38.084;2024-02-26T09:41:29;100633.47;;;-0.45;79.76
53011;BME280;42803;55.762;38.084;2024-02-26T09:43:58;100633.69;;;-0.31;78.87
53011;BME280;42803;55.762;38.084;2024-02-26T09:46:30;100623.44;;;-0.31;78.06
53011;BME280;42803;55.762;38.084;2024-02-26T09:48:59;100624.50;;;-0.54;79.03
53011;BME280;42803;55.762;38.084;2024-02-26T09:51:29;100638.19;;;-0.48;78.70
53011;BME280;42803;55.762;38.084;2024-02-26T09:54:03;100626.59;;;-0.39;77.88
53011;BME280;42803;55.762;38.084;2024-02-26T09:56:37;100627.91;;;-0.48;77.25
53011;BME280;42803;55.762;38.084;2024-02-26T09:59:23;100626.66;;;-0.57;78.59
53011;BME280;42803;55.762;38.084;2024-02-26T10:01:53;100628.09;;;-0.59;79.20
53011;BME280;42803;55.762;38.084;2024-02-26T10:04:23;100625.53;;;-0.78;79.43
53011;BME280;42803;55.762;38.084;2024-02-26T10:06:53;100626.53;;;-0.83;79.14
53011;BME280;42803;55.762;38.084;2024-02-26T10:09:24;100626.31;;;-0.66;78.53
53011;BME280;42803;55.762;38.084;2024-02-26T10:11:53;100621.47;;;-0.70;77.21
53011;BME280;42803;55.762;38.084;2024-02-26T10:14:23;100625.38;;;-0.66;77.65
53011;BME280;42803;55.762;38.084;2024-02-26T10:16:54;100623.72;;;-0.66;78.22
53011;BME280;42803;55.762;38.084;2024-02-26T10:19:27;100623.69;;;-0.79;78.44
53011;BME280;42803;55.762;38.084;2024-02-26T10:21:58;100617.97;;;-0.70;79.43
53011;BME280;42803;55.762;38.084;2024-02-26T10:24:29;100616.00;;;-0.79;78.36
53011;BME280;42803;55.762;38.084;2024-02-26T10:26:58;100609.16;;;-0.72;77.88
53011;BME280;42803;55.762;38.084;2024-02-26T10:29:28;100615.25;;;-0.59;78.76
53011;BME280;42803;55.762;38.084;2024-02-26T10:31:58;100614.50;;;-0.40;77.96
53011;BME280;42803;55.762;38.084;2024-02-26T10:34:28;100613.38;;;-0.42;76.92
53011;BME280;42803;55.762;38.084;2024-02-26T10:36:57;100611.50;;;-0.43;77.71
53011;BME280;42803;55.762;38.084;2024-02-26T10:39:26;100608.81;;;-0.50;77.17
53011;BME280;42803;55.762;38.084;2024-02-26T10:41:56;100609.78;;;-0.37;78.13
53011;BME280;42803;55.762;38.084;2024-02-26T10:44:25;100605.78;;;-0.35;77.50
53011;BME280;42803;55.762;38.084;2024-02-26T10:46:55;100610.91;;;-0.35;79.11
53011;BME280;42803;55.762;38.084;2024-02-26T10:49:26;100601.47;;;-0.41;77.29
53011;BME280;42803;55.762;38.084;2024-02-26T10:51:56;100599.84;;;-0.41;77.78
53011;BME280;42803;55.762;38.084;2024-02-26T10:54:26;100600.72;;;-0.53;76.76
53011;BME280;42803;55.762;38.084;2024-02-26T10:56:57;100614.53;;;-0.58;76.75
53011;BME280;42803;55.762;38.084;2024-02-26T10:59:28;100598.72;;;-0.61;77.88
53011;BME280;42803;55.762;38.084;2024-02-26T11:02:16;100607.13;;;-0.62;77.61
53011;BME280;42803;55.762;38.084;2024-02-26T11:04:58;100596.72;;;-0.51;77.66
53011;BME280;42803;55.762;38.084;2024-02-26T11:07:31;100601.88;;;-0.38;78.49
53011;BME280;42803;55.762;38.084;2024-02-26T11:10:01;100596.13;;;-0.43;78.48
53011;BME280;42803;55.762;38.084;2024-02-26T11:12:33;100591.84;;;-0.37;78.52
53011;BME280;42803;55.762;38.084;2024-02-26T11:15:06;100594.72;;;-0.41;77.12
53011;BME280;42803;55.762;38.084;2024-02-26T11:17:36;100589.16;;;-0.44;79.54
53011;BME280;42803;55.762;38.084;2024-02-26T11:20:10;100594.66;;;-0.54;78.63
53011;BME280;42803;55.762;38.084;2024-02-26T11:22:42;100589.72;;;-0.34;80.25
53011;BME280;42803;55.762;38.084;2024-02-26T11:25:11;100584.97;;;-0.31;80.79
53011;BME280;42803;55.762;38.084;2024-02-26T11:27:44;100585.56;;;-0.39;78.46
53011;BME280;42803;55.762;38.084;2024-02-26T11:30:15;100580.84;;;-0.36;78.21
53011;BME280;42803;55.762;38.084;2024-02-26T11:32:47;100571.31;;;-0.37;77.67
53011;BME280;42803;55.762;38.084;2024-02-26T11:35:20;100573.47;;;-0.27;78.08
53011;BME280;42803;55.762;38.084;2024-02-26T11:37:53;100576.34;;;-0.31;78.75
53011;BME280;42803;55.762;38.084;2024-02-26T11:40:25;100570.03;;;-0.15;78.51
53011;BME280;42803;55.762;38.084;2024-02-26T11:42:54;100570.78;;;-0.03;77.24
53011;BME280;42803;55.762;38.084;2024-02-26T11:45:49;100566.63;;;-0.08;75.58
53011;BME280;42803;55.762;38.084;2024-02-26T11:48:24;100576.69;;;0.03;76.43
53011;BME280;42803;55.762;38.084;2024-02-26T11:50:55;100568.19;;;0.10;75.88
53011;BME280;42803;55.762;38.084;2024-02-26T11:53:27;100566.25;;;-0.11;75.26
53011;BME280;42803;55.762;38.084;2024-02-26T11:56:21;100577.00;;;-0.14;75.89
53011;BME280;42803;55.762;38.084;2024-02-26T11:59:01;100580.84;;;-0.36;77.28
53011;BME280;42803;55.762;38.084;2024-02-26T12:01:42;100577.47;;;-0.42;77.40
53011;BME280;42803;55.762;38.084;2024-02-26T12:04:16;100569.06;;;-0.41;76.53
53011;BME280;42803;55.762;38.084;2024-02-26T12:06:50;100566.91;;;-0.38;77.00
53011;BME280;42803;55.762;38.084;2024-02-26T12:09:36;100562.16;;;-0.47;77.64
53011;BME280;42803;55.762;38.084;2024-02-26T12:12:07;100557.94;;;-0.47;77.00
53011;BME280;42803;55.762;38.084;2024-02-26T12:14:38;100556.41;;;-0.52;77.57
53011;BME280;42803;55.762;38.084;2024-02-26T12:17:20;100550.25;;;-0.60;75.88
53011;BME280;42803;55.762;38.084;2024-02-26T12:19:50;100551.06;;;-0.54;75.65
53011;BME280;42803;55.762;38.084;2024-02-26T12:22:23;100539.75;;;-0.30;75.53
53011;BME280;42803;55.762;38.084;2024-02-26T12:24:59;100544.97;;;-0.23;74.66
53011;BME280;42803;55.762;38.084;2024-02-26T12:27:32;100540.06;;;-0.21;75.30
53011;BME280;42803;55.762;38.084;2024-02-26T12:30:01;100543.03;;;-0.18;73.90
53011;BME280;42803;55.762;38.084;2024-02-26T12:32:31;100552.88;;;-0.21;73.49
53011;BME280;42803;55.762;38.084;2024-02-26T12:35:01;100543.53;;;-0.34;73.78
53011;BME280;42803;55.762;38.084;2024-02-26T12:37:32;100538.28;;;-0.41;72.34
53011;BME280;42803;55.762;38.084;2024-02-26T12:40:05;100540.47;;;-0.62;71.59
53011;BME280;42803;55.762;38.084;2024-02-26T12:42:37;100544.25;;;-0.66;73.11
53011;BME280;42803;55.762;38.084;2024-02-26T12:45:09;100551.91;;;-0.79;72.06
53011;BME280;42803;55.762;38.084;2024-02-26T12:47:43;100553.91;;;-0.89;74.28
53011;BME280;42803;55.762;38.084;2024-02-26T12:50:13;100546.09;;;-0.96;73.53
53011;BME280;42803;55.762;38.084;2024-02-26T12:52:46;100551.31;;;-1.02;75.42
53011;BME280;42803;55.762;38.084;2024-02-26T12:55:17;100548.28;;;-1.17;71.29
53011;BME280;42803;55.762;38.084;2024-02-26T12:57:48;100554.91;;;-1.25;72.99